sensor_id;sensor_type;location;lat;lon;timestamp;noise_LAeq;noise_LA_min;noise_LA_max;noise_LA01;noise_LA95
76382;Laerm;65202;52.520;10.528;2023-09-12T00:00:48;39.35;33.47;52.10;;
76382;Laerm;65202;52.520;10.528;2023-09-12T00:03:21;39.18;31.88;52.66;;
76382;Laerm;65202;52.520;10.528;2023-09-12T00:05:57;39.85;32.35;51.92;;
76382;Laerm;65202;52.520;10.528;2023-09-12T00:08:25;39.33;32.31;51.44;;
76382;Laerm;65202;52.520;10.528;2023-09-12T00:11:10;39.50;32.47;52.17;;
76382;Laerm;65202;52.520;10.528;2023-09-12T00:13:40;39.79;33.35;52.30;;
76382;Laerm;65202;52.520;10.528;2023-09-12T00:16:08;39.59;33.03;52.65;;
76382;Laerm;65202;52.520;10.528;2023-09-12T00:18:39;39.46;33.34;51.70;;
76382;Laerm;65202;52.520;10.528;2023-09-12T00:21:07;40.68;34.05;52.73;;
76382;Laerm;65202;52.520;10.528;2023-09-12T00:23:34;42.04;35.93;51.64;;
76382;Laerm;65202;52.520;10.528;2023-09-12T00:26:02;40.97;34.15;52.98;;
76382;Laerm;65202;52.520;10.528;2023-09-12T00:28:29;39.64;31.93;53.19;;
76382;Laerm;65202;52.520;10.528;2023-09-12T00:30:56;40.00;31.90;53.31;;
76382;Laerm;65202;52.520;10.528;2023-09-12T00:33:23;39.21;32.82;52.23;;
76382;Laerm;65202;52.520;10.528;2023-09-12T00:35:51;41.01;34.54;52.62;;
76382;Laerm;65202;52.520;10.528;2023-09-12T00:38:18;41.00;34.06;51.92;;
76382;Laerm;65202;52.520;10.528;2023-09-12T00:40:46;39.81;33.65;52.46;;
76382;Laerm;65202;52.520;10.528;2023-09-12T00:43:13;39.39;33.57;52.06;;
76382;Laerm;65202;52.520;10.528;2023-09-12T00:45:41;39.68;33.27;51.77;;
76382;Laerm;65202;52.520;10.528;2023-09-12T00:48:09;39.18;32.42;51.68;;
76382;Laerm;65202;52.520;10.528;2023-09-12T00:50:38;39.31;32.15;52.62;;
76382;Laerm;65202;52.520;10.528;2023-09-12T00:53:06;39.12;32.00;52.36;;
76382;Laerm;65202;52.520;10.528;2023-09-12T00:55:37;39.18;32.08;52.83;;
76382;Laerm;65202;52.520;10.528;2023-09-12T00:58:07;36.12;32.87;39.93;;
76382;Laerm;65202;52.520;10.528;2023-09-12T01:00:35;39.89;32.61;52.47;;
76382;Laerm;65202;52.520;10.528;2023-09-12T01:03:03;39.71;33.28;52.29;;
76382;Laerm;65202;52.520;10.528;2023-09-12T01:05:31;39.83;33.46;51.75;;
76382;Laerm;65202;52.520;10.528;2023-09-12T01:08:00;39.52;33.93;51.73;;
76382;Laerm;65202;52.520;10.528;2023-09-12T01:10:28;39.10;33.37;54.14;;
76382;Laerm;65202;52.520;10.528;2023-09-12T01:12:55;39.15;32.86;51.91;;
76382;Laerm;65202;52.520;10.528;2023-09-12T01:15:22;39.79;34.01;52.62;;
76382;Laerm;65202;52.520;10.528;2023-09-12T01:17:50;39.44;33.16;50.81;;
76382;Laerm;65202;52.520;10.528;2023-09-12T01:20:27;39.24;31.82;52.05;;
76382;Laerm;65202;52.520;10.528;2023-09-12T01:29:06;39.20;32.35;51.49;;
76382;Laerm;65202;52.520;10.528;2023-09-12T01:31:37;39.51;33.61;51.76;;
76382;Laerm;65202;52.520;10.528;2023-09-12T01:34:11;39.18;32.90;51.30;;
76382;Laerm;65202;52.520;10.528;2023-09-12T01:36:39;39.39;33.77;51.54;;
76382;Laerm;65202;52.520;10.528;2023-09-12T01:39:06;39.79;33.55;52.90;;
76382;Laerm;65202;52.520;10.528;2023-09-12T01:41:39;39.29;33.30;52.69;;
76382;Laerm;65202;52.520;10.528;2023-09-12T01:44:09;39.36;33.37;51.26;;
76382;Laerm;65202;52.520;10.528;2023-09-12T01:46:39;39.83;33.56;51.61;;
76382;Laerm;65202;52.520;10.528;2023-09-12T01:49:09;39.85;33.79;52.80;;
76382;Laerm;65202;52.520;10.528;2023-09-12T01:51:38;39.53;31.54;51.14;;
76382;Laerm;65202;52.520;10.528;2023-09-12T01:54:06;39.48;31.97;51.16;;
76382;Laerm;65202;52.520;10.528;2023-09-12T01:56:35;39.79;33.61;53.47;;
76382;Laerm;65202;52.520;10.528;2023-09-12T01:59:03;39.76;33.65;51.47;;
76382;Laerm;65202;52.520;10.528;2023-09-12T02:01:30;39.46;31.87;53.62;;
76382;Laerm;65202;52.520;10.528;2023-09-12T02:03:58;39.99;32.81;52.21;;
76382;Laerm;65202;52.520;10.528;2023-09-12T02:06:25;39.66;33.08;51.82;;
76382;Laerm;65202;52.520;10.528;2023-09-12T02:08:52;40.12;33.55;51.88;;
76382;Laerm;65202;52.520;10.528;2023-09-12T02:11:19;39.49;33.58;51.38;;
76382;Laerm;65202;52.520;10.528;2023-09-12T02:13:47;39.43;32.10;53.41;;
76382;Laerm;65202;52.520;10.528;2023-09-12T02:16:14;40.20;32.79;57.24;;
76382;Laerm;65202;52.520;10.528;2023-09-12T02:18:41;39.69;32.02;52.93;;
76382;Laerm;65202;52.520;10.528;2023-09-12T02:21:09;39.51;31.88;51.49;;
76382;Laerm;65202;52.520;10.528;2023-09-12T02:23:36;39.41;32.15;52.94;;
76382;Laerm;65202;52.520;10.528;2023-09-12T02:26:03;39.39;33.28;52.11;;
76382;Laerm;65202;52.520;10.528;2023-09-12T02:28:31;39.44;32.32;52.06;;
76382;Laerm;65202;52.520;10.528;2023-09-12T02:30:58;39.43;32.88;51.71;;
76382;Laerm;65202;52.520;10.528;2023-09-12T02:33:26;39.34;32.65;51.70;;
76382;Laerm;65202;52.520;10.528;2023-09-12T02:35:53;39.43;31.86;52.94;;
76382;Laerm;65202;52.520;10.528;2023-09-12T02:38:20;46.22;33.13;64.96;;
76382;Laerm;65202;52.520;10.528;2023-09-12T02:40:47;39.30;32.18;51.66;;
76382;Laerm;65202;52.520;10.528;2023-09-12T02:43:15;39.37;32.00;52.75;;
76382;Laerm;65202;52.520;10.528;2023-09-12T02:45:42;39.34;31.78;52.43;;
76382;Laerm;65202;52.520;10.528;2023-09-12T02:48:10;39.33;31.85;52.10;;
76382;Laerm;65202;52.520;10.528;2023-09-12T02:50:37;39.35;33.41;58.41;;
76382;Laerm;65202;52.520;10.528;2023-09-12T02:53:05;39.45;33.07;53.90;;
76382;Laerm;65202;52.520;10.528;2023-09-12T02:55:33;39.42;33.46;51.50;;
76382;Laerm;65202;52.520;10.528;2023-09-12T02:58:00;39.44;32.13;50.54;;
76382;Laerm;65202;52.520;10.528;2023-09-12T03:00:27;39.54;32.74;52.25;;
76382;Laerm;65202;52.520;10.528;2023-09-12T03:02:55;40.68;33.71;53.19;;
76382;Laerm;65202;52.520;10.528;2023-09-12T03:05:22;40.54;32.76;52.98;;
76382;Laerm;65202;52.520;10.528;2023-09-12T03:07:49;40.82;35.23;52.50;;
76382;Laerm;65202;52.520;10.528;2023-09-12T03:10:17;40.47;34.71;52.00;;
76382;Laerm;65202;52.520;10.528;2023-09-12T03:12:44;40.33;34.28;53.50;;
76382;Laerm;65202;52.520;10.528;2023-09-12T03:15:11;40.37;34.44;51.30;;
76382;Laerm;65202;52.520;10.528;2023-09-12T03:17:39;40.42;34.36;52.65;;
76382;Laerm;65202;52.520;10.528;2023-09-12T03:20:06;40.54;33.71;51.60;;
76382;Laerm;65202;52.520;10.528;2023-09-12T03:22:36;40.46;33.91;56.31;;
76382;Laerm;65202;52.520;10.528;2023-09-12T03:25:05;40.55;34.90;52.03;;
76382;Laerm;65202;52.520;10.528;2023-09-12T03:27:33;41.06;34.90;53.95;;
76382;Laerm;65202;52.520;10.528;2023-09-12T03:30:00;41.29;35.36;51.79;;
76382;Laerm;65202;52.520;10.528;2023-09-12T03:32:27;40.72;34.99;52.84;;
76382;Laerm;65202;52.520;10.528;2023-09-12T03:34:54;41.66;35.49;56.87;;
76382;Laerm;65202;52.520;10.528;2023-09-12T03:37:22;43.49;35.64;59.60;;
76382;Laerm;65202;52.520;10.528;2023-09-12T03:39:49;41.50;34.86;52.69;;
76382;Laerm;65202;52.520;10.528;2023-09-12T03:42:17;41.29;35.80;51.88;;
76382;Laerm;65202;52.520;10.528;2023-09-12T03:44:44;40.71;34.89;52.05;;
76382;Laerm;65202;52.520;10.528;2023-09-12T03:47:11;41.07;34.90;53.40;;
76382;Laerm;65202;52.520;10.528;2023-09-12T03:49:38;41.22;35.38;52.34;;
76382;Laerm;65202;52.520;10.528;2023-09-12T03:52:06;41.62;35.44;51.68;;
76382;Laerm;65202;52.520;10.528;2023-09-12T03:54:33;41.59;34.94;52.73;;
76382;Laerm;65202;52.520;10.528;2023-09-12T03:57:00;40.87;34.78;53.02;;
76382;Laerm;65202;52.520;10.528;2023-09-12T03:59:28;44.51;35.04;67.13;;
76382;Laerm;65202;52.520;10.528;2023-09-12T04:01:55;44.13;36.66;73.02;;
76382;Laerm;65202;52.520;10.528;2023-09-12T04:04:22;40.96;34.67;60.46;;
76382;Laerm;65202;52.520;10.528;2023-09-12T04:06:50;41.25;35.44;51.51;;
76382;Laerm;65202;52.520;10.528;2023-09-12T04:09:17;43.41;34.39;60.54;;
76382;Laerm;65202;52.520;10.528;2023-09-12T04:11:44;40.43;34.74;52.26;;
76382;Laerm;65202;52.520;10.528;2023-09-12T04:14:14;41.85;34.49;54.62;;
76382;Laerm;65202;52.520;10.528;2023-09-12T04:16:42;40.74;34.58;52.87;;
76382;Laerm;65202;52.520;10.528;2023-09-12T04:19:09;40.66;34.48;51.96;;
76382;Laerm;65202;52.520;10.528;2023-09-12T04:21:37;45.18;36.20;63.30;;
76382;Laerm;65202;52.520;10.528;2023-09-12T04:24:05;43.60;35.44;70.56;;
76382;Laerm;65202;52.520;10.528;2023-09-12T04:26:34;41.12;35.76;52.19;;
76382;Laerm;65202;52.520;10.528;2023-09-12T04:29:02;41.25;35.30;52.22;;
76382;Laerm;65202;52.520;10.528;2023-09-12T04:31:29;41.95;35.95;55.43;;
76382;Laerm;65202;52.520;10.528;2023-09-12T04:33:57;45.32;36.08;62.09;;
76382;Laerm;65202;52.520;10.528;2023-09-12T04:36:25;44.42;39.12;53.62;;
76382;Laerm;65202;52.520;10.528;2023-09-12T04:38:52;44.96;40.39;53.65;;
76382;Laerm;65202;52.520;10.528;2023-09-12T04:41:19;42.87;37.82;53.45;;
76382;Laerm;65202;52.520;10.528;2023-09-12T04:43:48;46.46;37.97;67.69;;
76382;Laerm;65202;52.520;10.528;2023-09-12T04:46:15;45.73;38.00;60.87;;
76382;Laerm;65202;52.520;10.528;2023-09-12T04:48:43;42.49;37.00;60.46;;
76382;Laerm;65202;52.520;10.528;2023-09-12T04:51:12;45.30;36.65;65.09;;
76382;Laerm;65202;52.520;10.528;2023-09-12T04:53:39;43.34;36.56;55.29;;
76382;Laerm;65202;52.520;10.528;2023-09-12T04:56:07;46.65;36.05;62.77;;
76382;Laerm;65202;52.520;10.528;2023-09-12T04:58:37;43.97;36.31;58.22;;
76382;Laerm;65202;52.520;10.528;2023-09-12T05:01:04;42.46;35.09;60.05;;
76382;Laerm;65202;52.520;10.528;2023-09-12T05:03:31;45.74;36.83;58.34;;
76382;Laerm;65202;52.520;10.528;2023-09-12T05:06:00;50.13;35.60;74.90;;
76382;Laerm;65202;52.520;10.528;2023-09-12T05:08:31;41.80;36.32;52.22;;
76382;Laerm;65202;52.520;10.528;2023-09-12T05:10:58;46.10;36.01;64.54;;
76382;Laerm;65202;52.520;10.528;2023-09-12T05:13:25;43.04;36.28;55.42;;
76382;Laerm;65202;52.520;10.528;2023-09-12T05:15:53;42.09;36.37;55.92;;
76382;Laerm;65202;52.520;10.528;2023-09-12T05:18:20;41.39;35.91;55.00;;
76382;Laerm;65202;52.520;10.528;2023-09-12T05:20:47;44.21;36.03;60.29;;
76382;Laerm;65202;52.520;10.528;2023-09-12T05:23:15;44.73;36.14;62.86;;
76382;Laerm;65202;52.520;10.528;2023-09-12T05:25:42;42.46;35.52;56.34;;
76382;Laerm;65202;52.520;10.528;2023-09-12T05:28:10;43.79;36.15;55.46;;
76382;Laerm;65202;52.520;10.528;2023-09-12T05:30:37;44.73;35.16;58.12;;
76382;Laerm;65202;52.520;10.528;2023-09-12T05:33:04;45.51;35.71;61.67;;
76382;Laerm;65202;52.520;10.528;2023-09-12T05:35:32;42.37;35.24;54.76;;
76382;Laerm;65202;52.520;10.528;2023-09-12T05:37:59;45.58;35.69;61.18;;
76382;Laerm;65202;52.520;10.528;2023-09-12T05:40:26;43.48;35.09;65.33;;
76382;Laerm;65202;52.520;10.528;2023-09-12T05:42:54;41.29;35.07;54.39;;
76382;Laerm;65202;52.520;10.528;2023-09-12T05:45:21;45.36;35.69;58.45;;
76382;Laerm;65202;52.520;10.528;2023-09-12T05:47:49;42.35;35.14;57.08;;
76382;Laerm;65202;52.520;10.528;2023-09-12T05:50:18;49.02;35.93;67.74;;
76382;Laerm;65202;52.520;10.528;2023-09-12T05:52:45;42.18;35.11;59.36;;
76382;Laerm;65202;52.520;10.528;2023-09-12T05:55:13;49.45;35.42;63.65;;
76382;Laerm;65202;52.520;10.528;2023-09-12T05:57:40;43.30;35.31;56.77;;
76382;Laerm;65202;52.520;10.528;2023-09-12T06:00:08;42.83;36.09;57.79;;
76382;Laerm;65202;52.520;10.528;2023-09-12T06:02:39;46.06;34.42;63.66;;
76382;Laerm;65202;52.520;10.528;2023-09-12T06:05:07;44.06;34.77;55.34;;
76382;Laerm;65202;52.520;10.528;2023-09-12T06:07:35;50.84;34.90;68.40;;
76382;Laerm;65202;52.520;10.528;2023-09-12T06:10:02;42.59;35.77;54.86;;
76382;Laerm;65202;52.520;10.528;2023-09-12T06:12:30;44.04;34.77;56.52;;
76382;Laerm;65202;52.520;10.528;2023-09-12T06:15:00;44.35;35.07;64.06;;
76382;Laerm;65202;52.520;10.528;2023-09-12T06:17:27;47.57;36.45;64.72;;
76382;Laerm;65202;52.520;10.528;2023-09-12T06:19:55;43.73;36.63;57.42;;
76382;Laerm;65202;52.520;10.528;2023-09-12T06:22:22;43.36;36.17;54.37;;
76382;Laerm;65202;52.520;10.528;2023-09-12T06:24:50;45.70;38.97;60.42;;
76382;Laerm;65202;52.520;10.528;2023-09-12T06:27:17;44.37;37.82;53.31;;
76382;Laerm;65202;52.520;10.528;2023-09-12T06:29:48;44.63;37.72;66.16;;
76382;Laerm;65202;52.520;10.528;2023-09-12T06:32:19;44.01;37.92;55.46;;
76382;Laerm;65202;52.520;10.528;2023-09-12T06:34:47;48.42;39.23;65.92;;
76382;Laerm;65202;52.520;10.528;2023-09-12T06:37:15;48.43;37.85;63.56;;
76382;Laerm;65202;52.520;10.528;2023-09-12T06:39:42;53.08;47.88;72.42;;
76382;Laerm;65202;52.520;10.528;2023-09-12T06:42:10;55.88;51.74;68.89;;
76382;Laerm;65202;52.520;10.528;2023-09-12T06:44:37;60.71;52.66;71.55;;
76382;Laerm;65202;52.520;10.528;2023-09-12T06:47:05;61.50;56.28;75.66;;
76382;Laerm;65202;52.520;10.528;2023-09-12T06:49:32;60.55;55.89;68.98;;
76382;Laerm;65202;52.520;10.528;2023-09-12T06:52:02;62.84;57.34;71.49;;
76382;Laerm;65202;52.520;10.528;2023-09-12T06:54:29;63.37;58.76;75.22;;
76382;Laerm;65202;52.520;10.528;2023-09-12T06:56:57;60.85;55.84;71.95;;
76382;Laerm;65202;52.520;10.528;2023-09-12T06:59:24;63.85;56.99;74.66;;
76382;Laerm;65202;52.520;10.528;2023-09-12T07:01:52;65.46;48.47;86.63;;
76382;Laerm;65202;52.520;10.528;2023-09-12T07:04:19;56.43;43.72;73.06;;
76382;Laerm;65202;52.520;10.528;2023-09-12T07:06:46;59.74;43.14;80.16;;
76382;Laerm;65202;52.520;10.528;2023-09-12T07:09:14;63.23;41.10;86.96;;
76382;Laerm;65202;52.520;10.528;2023-09-12T07:11:42;51.91;40.56;70.13;;
76382;Laerm;65202;52.520;10.528;2023-09-12T07:14:09;49.46;41.16;67.01;;
76382;Laerm;65202;52.520;10.528;2023-09-12T07:16:37;54.40;40.40;76.03;;
76382;Laerm;65202;52.520;10.528;2023-09-12T07:19:05;52.86;42.39;67.26;;
76382;Laerm;65202;52.520;10.528;2023-09-12T07:21:32;54.02;39.76;76.72;;
76382;Laerm;65202;52.520;10.528;2023-09-12T07:24:00;53.93;37.76;68.12;;
76382;Laerm;65202;52.520;10.528;2023-09-12T07:26:27;52.71;38.62;68.40;;
76382;Laerm;65202;52.520;10.528;2023-09-12T07:28:54;48.46;38.15;67.21;;
76382;Laerm;65202;52.520;10.528;2023-09-12T07:31:22;50.84;37.62;66.62;;
76382;Laerm;65202;52.520;10.528;2023-09-12T07:33:50;45.90;36.54;65.66;;
76382;Laerm;65202;52.520;10.528;2023-09-12T07:36:17;46.43;37.35;65.78;;
76382;Laerm;65202;52.520;10.528;2023-09-12T07:38:45;49.55;38.45;67.18;;
76382;Laerm;65202;52.520;10.528;2023-09-12T07:41:14;43.72;37.15;62.55;;
76382;Laerm;65202;52.520;10.528;2023-09-12T07:43:41;44.64;37.28;65.40;;
76382;Laerm;65202;52.520;10.528;2023-09-12T07:46:09;46.25;37.40;68.51;;
76382;Laerm;65202;52.520;10.528;2023-09-12T07:48:36;47.25;39.00;64.95;;
76382;Laerm;65202;52.520;10.528;2023-09-12T07:51:15;45.44;39.41;66.85;;
76382;Laerm;65202;52.520;10.528;2023-09-12T07:53:53;49.12;38.57;67.76;;
76382;Laerm;65202;52.520;10.528;2023-09-12T07:56:20;44.97;38.08;63.88;;
76382;Laerm;65202;52.520;10.528;2023-09-12T07:58:48;46.12;38.29;63.87;;
76382;Laerm;65202;52.520;10.528;2023-09-12T08:01:16;45.73;39.26;65.85;;
76382;Laerm;65202;52.520;10.528;2023-09-12T08:03:43;46.26;39.07;64.98;;
76382;Laerm;65202;52.520;10.528;2023-09-12T08:06:11;54.49;43.00;67.76;;
76382;Laerm;65202;52.520;10.528;2023-09-12T08:08:39;49.02;40.37;70.50;;
76382;Laerm;65202;52.520;10.528;2023-09-12T08:11:08;49.08;38.36;66.08;;
76382;Laerm;65202;52.520;10.528;2023-09-12T08:13:36;46.05;37.41;62.07;;
76382;Laerm;65202;52.520;10.528;2023-09-12T08:16:04;45.79;38.09;65.30;;
76382;Laerm;65202;52.520;10.528;2023-09-12T08:18:31;44.80;37.51;65.39;;
76382;Laerm;65202;52.520;10.528;2023-09-12T08:20:58;44.88;37.47;67.11;;
76382;Laerm;65202;52.520;10.528;2023-09-12T08:23:26;48.13;37.24;65.90;;
76382;Laerm;65202;52.520;10.528;2023-09-12T08:25:53;46.47;36.70;64.05;;
76382;Laerm;65202;52.520;10.528;2023-09-12T08:28:21;47.02;37.12;62.94;;
76382;Laerm;65202;52.520;10.528;2023-09-12T08:30:48;43.76;37.41;65.05;;
76382;Laerm;65202;52.520;10.528;2023-09-12T08:33:16;45.73;36.76;61.73;;
76382;Laerm;65202;52.520;10.528;2023-09-12T08:35:43;43.49;36.89;57.27;;
76382;Laerm;65202;52.520;10.528;2023-09-12T08:38:11;45.57;36.80;61.91;;
76382;Laerm;65202;52.520;10.528;2023-09-12T08:40:39;45.40;37.08;66.74;;
76382;Laerm;65202;52.520;10.528;2023-09-12T08:43:07;43.86;37.66;58.02;;
76382;Laerm;65202;52.520;10.528;2023-09-12T08:45:35;46.57;37.42;63.18;;
76382;Laerm;65202;52.520;10.528;2023-09-12T08:48:04;42.09;36.27;53.05;;
76382;Laerm;65202;52.520;10.528;2023-09-12T08:50:32;43.33;36.23;66.44;;
76382;Laerm;65202;52.520;10.528;2023-09-12T08:53:01;49.11;35.58;65.52;;
76382;Laerm;65202;52.520;10.528;2023-09-12T08:55:35;47.05;35.11;61.87;;
76382;Laerm;65202;52.520;10.528;2023-09-12T08:58:05;43.40;34.93;58.86;;
76382;Laerm;65202;52.520;10.528;2023-09-12T09:00:34;42.73;35.47;58.82;;
76382;Laerm;65202;52.520;10.528;2023-09-12T09:03:04;44.61;34.88;62.71;;
76382;Laerm;65202;52.520;10.528;2023-09-12T09:05:34;45.79;35.75;67.87;;
76382;Laerm;65202;52.520;10.528;2023-09-12T09:08:03;43.05;35.32;63.07;;
76382;Laerm;65202;52.520;10.528;2023-09-12T09:10:31;48.98;35.56;62.82;;
76382;Laerm;65202;52.520;10.528;2023-09-12T09:13:17;41.08;34.77;57.79;;
76382;Laerm;65202;52.520;10.528;2023-09-12T09:15:46;43.87;35.41;58.66;;
76382;Laerm;65202;52.520;10.528;2023-09-12T09:18:14;41.11;34.12;60.54;;
76382;Laerm;65202;52.520;10.528;2023-09-12T09:20:42;44.19;35.02;57.90;;
76382;Laerm;65202;52.520;10.528;2023-09-12T09:23:12;41.17;34.96;51.33;;
76382;Laerm;65202;52.520;10.528;2023-09-12T09:25:42;42.76;34.19;55.77;;
76382;Laerm;65202;52.520;10.528;2023-09-12T09:28:21;49.17;34.92;64.78;;
76382;Laerm;65202;52.520;10.528;2023-09-12T09:30:51;47.96;34.58;65.81;;
76382;Laerm;65202;52.520;10.528;2023-09-12T09:33:19;44.37;34.21;70.04;;
76382;Laerm;65202;52.520;10.528;2023-09-12T09:35:48;41.78;33.87;62.73;;
76382;Laerm;65202;52.520;10.528;2023-09-12T09:38:19;45.42;34.18;71.60;;
76382;Laerm;65202;52.520;10.528;2023-09-12T09:40:48;45.05;34.70;60.21;;
76382;Laerm;65202;52.520;10.528;2023-09-12T09:43:22;46.44;35.45;63.99;;
76382;Laerm;65202;52.520;10.528;2023-09-12T09:45:49;47.77;34.79;62.27;;
76382;Laerm;65202;52.520;10.528;2023-09-12T09:48:22;46.75;34.84;62.80;;
76382;Laerm;65202;52.520;10.528;2023-09-12T09:50:51;45.56;34.20;62.46;;
76382;Laerm;65202;52.520;10.528;2023-09-12T09:53:32;49.34;34.87;70.07;;
76382;Laerm;65202;52.520;10.528;2023-09-12T09:56:20;44.08;35.62;60.52;;
76382;Laerm;65202;52.520;10.528;2023-09-12T09:58:48;49.92;37.23;63.03;;
76382;Laerm;65202;52.520;10.528;2023-09-12T10:01:20;44.35;36.51;57.21;;
76382;Laerm;65202;52.520;10.528;2023-09-12T10:03:50;47.20;35.90;64.81;;
76382;Laerm;65202;52.520;10.528;2023-09-12T10:06:19;47.87;35.57;62.98;;
76382;Laerm;65202;52.520;10.528;2023-09-12T10:08:51;48.90;35.36;66.62;;
76382;Laerm;65202;52.520;10.528;2023-09-12T10:11:23;47.08;36.28;62.70;;
76382;Laerm;65202;52.520;10.528;2023-09-12T10:13:56;44.89;36.56;55.98;;
76382;Laerm;65202;52.520;10.528;2023-09-12T10:16:32;42.49;35.99;53.17;;
76382;Laerm;65202;52.520;10.528;2023-09-12T10:24:35;42.52;36.29;54.16;;
76382;Laerm;65202;52.520;10.528;2023-09-12T10:27:05;42.12;34.13;63.94;;
76382;Laerm;65202;52.520;10.528;2023-09-12T10:29:33;43.10;34.73;59.54;;
76382;Laerm;65202;52.520;10.528;2023-09-12T10:32:02;46.06;34.48;61.42;;
76382;Laerm;65202;52.520;10.528;2023-09-12T10:34:31;40.98;34.21;51.99;;
76382;Laerm;65202;52.520;10.528;2023-09-12T10:36:59;51.29;34.86;71.53;;
76382;Laerm;65202;52.520;10.528;2023-09-12T10:39:29;42.24;34.66;54.34;;
76382;Laerm;65202;52.520;10.528;2023-09-12T10:41:58;45.53;34.42;66.24;;
76382;Laerm;65202;52.520;10.528;2023-09-12T10:44:25;48.22;34.40;67.06;;
76382;Laerm;65202;52.520;10.528;2023-09-12T10:46:54;45.05;34.60;64.45;;
76382;Laerm;65202;52.520;10.528;2023-09-12T10:49:21;44.85;34.57;60.58;;
76382;Laerm;65202;52.520;10.528;2023-09-12T10:51:51;46.14;34.87;64.98;;
76382;Laerm;65202;52.520;10.528;2023-09-12T10:54:38;48.96;34.71;66.48;;
76382;Laerm;65202;52.520;10.528;2023-09-12T10:57:09;51.33;35.45;66.03;;
76382;Laerm;65202;52.520;10.528;2023-09-12T11:02:35;47.93;35.21;75.17;;
76382;Laerm;65202;52.520;10.528;2023-09-12T11:05:05;43.18;35.00;54.77;;
76382;Laerm;65202;52.520;10.528;2023-09-12T11:07:44;43.83;35.22;56.56;;
76382;Laerm;65202;52.520;10.528;2023-09-12T11:12:43;47.45;34.74;63.42;;
76382;Laerm;65202;52.520;10.528;2023-09-12T11:15:11;45.41;34.39;58.65;;
76382;Laerm;65202;52.520;10.528;2023-09-12T11:17:43;49.30;35.53;71.95;;
76382;Laerm;65202;52.520;10.528;2023-09-12T11:20:12;49.06;34.96;64.66;;
76382;Laerm;65202;52.520;10.528;2023-09-12T11:22:46;46.04;35.26;70.75;;
76382;Laerm;65202;52.520;10.528;2023-09-12T11:25:25;49.08;35.71;68.29;;
76382;Laerm;65202;52.520;10.528;2023-09-12T11:30:23;52.09;34.77;86.40;;
76382;Laerm;65202;52.520;10.528;2023-09-12T11:32:54;43.71;34.95;55.25;;
76382;Laerm;65202;52.520;10.528;2023-09-12T11:35:25;50.29;34.23;72.57;;
76382;Laerm;65202;52.520;10.528;2023-09-12T11:37:59;48.08;34.65;61.94;;
76382;Laerm;65202;52.520;10.528;2023-09-12T11:43:01;46.39;34.17;68.02;;
76382;Laerm;65202;52.520;10.528;2023-09-12T11:45:31;45.91;34.21;67.71;;
76382;Laerm;65202;52.520;10.528;2023-09-12T11:48:02;52.57;33.62;75.99;;
76382;Laerm;65202;52.520;10.528;2023-09-12T11:50:35;44.78;33.96;57.44;;
76382;Laerm;65202;52.520;10.528;2023-09-12T11:53:09;42.67;34.83;55.60;;
76382;Laerm;65202;52.520;10.528;2023-09-12T11:55:43;45.33;34.39;63.17;;
76382;Laerm;65202;52.520;10.528;2023-09-12T11:58:13;45.88;34.46;58.54;;
76382;Laerm;65202;52.520;10.528;2023-09-12T12:00:49;44.57;35.03;63.79;;
76382;Laerm;65202;52.520;10.528;2023-09-12T12:03:19;46.17;35.48;63.91;;
76382;Laerm;65202;52.520;10.528;2023-09-12T12:05:47;41.72;35.13;51.88;;
76382;Laerm;65202;52.520;10.528;2023-09-12T12:08:17;42.73;34.75;60.27;;
76382;Laerm;65202;52.520;10.528;2023-09-12T12:10:59;42.88;35.11;61.43;;
76382;Laerm;65202;52.520;10.528;2023-09-12T12:13:27;43.59;35.01;58.51;;
76382;Laerm;65202;52.520;10.528;2023-09-12T12:15:56;46.91;36.06;64.52;;
76382;Laerm;65202;52.520;10.528;2023-09-12T12:18:24;47.14;35.17;65.10;;
76382;Laerm;65202;52.520;10.528;2023-09-12T12:20:53;43.57;35.64;64.82;;
76382;Laerm;65202;52.520;10.528;2023-09-12T12:23:20;55.82;36.40;77.06;;
76382;Laerm;65202;52.520;10.528;2023-09-12T12:25:48;48.35;35.80;61.61;;
76382;Laerm;65202;52.520;10.528;2023-09-12T12:28:16;45.18;34.86;64.14;;
76382;Laerm;65202;52.520;10.528;2023-09-12T12:30:43;44.93;34.89;57.77;;
76382;Laerm;65202;52.520;10.528;2023-09-12T12:33:11;44.41;34.32;64.58;;
76382;Laerm;65202;52.520;10.528;2023-09-12T12:36:05;45.33;35.53;56.50;;
76382;Laerm;65202;52.520;10.528;2023-09-12T12:38:37;47.34;35.46;64.38;;
76382;Laerm;65202;52.520;10.528;2023-09-12T12:41:29;48.82;37.17;62.95;;
76382;Laerm;65202;52.520;10.528;2023-09-12T12:44:09;53.39;37.96;72.43;;
76382;Laerm;65202;52.520;10.528;2023-09-12T12:46:53;49.89;37.92;66.37;;
76382;Laerm;65202;52.520;10.528;2023-09-12T12:49:21;51.67;38.55;72.47;;
76382;Laerm;65202;52.520;10.528;2023-09-12T12:51:50;49.36;35.78;71.17;;
76382;Laerm;65202;52.520;10.528;2023-09-12T12:54:22;47.56;35.44;73.56;;
76382;Laerm;65202;52.520;10.528;2023-09-12T12:56:50;49.30;34.86;65.34;;
76382;Laerm;65202;52.520;10.528;2023-09-12T12:59:17;42.60;34.03;61.18;;
76382;Laerm;65202;52.520;10.528;2023-09-12T13:01:44;43.78;34.83;56.97;;
76382;Laerm;65202;52.520;10.528;2023-09-12T13:04:12;47.17;34.20;62.76;;
76382;Laerm;65202;52.520;10.528;2023-09-12T13:06:39;45.98;34.18;66.91;;
76382;Laerm;65202;52.520;10.528;2023-09-12T13:09:08;58.75;41.22;70.19;;
76382;Laerm;65202;52.520;10.528;2023-09-12T13:11:37;59.37;50.49;72.79;;
76382;Laerm;65202;52.520;10.528;2023-09-12T13:14:05;51.82;41.72;65.12;;
76382;Laerm;65202;52.520;10.528;2023-09-12T13:16:41;46.94;40.18;64.25;;
76382;Laerm;65202;52.520;10.528;2023-09-12T13:19:09;45.79;40.62;64.98;;
76382;Laerm;65202;52.520;10.528;2023-09-12T13:21:38;44.10;36.96;64.33;;
76382;Laerm;65202;52.520;10.528;2023-09-12T13:24:06;46.75;36.70;68.69;;
76382;Laerm;65202;52.520;10.528;2023-09-12T13:26:33;41.75;35.47;64.66;;
76382;Laerm;65202;52.520;10.528;2023-09-12T13:29:01;40.80;34.66;63.54;;
76382;Laerm;65202;52.520;10.528;2023-09-12T13:31:28;43.97;35.70;68.24;;
76382;Laerm;65202;52.520;10.528;2023-09-12T13:33:55;41.92;34.43;61.15;;
76382;Laerm;65202;52.520;10.528;2023-09-12T13:36:23;40.22;34.28;51.06;;
76382;Laerm;65202;52.520;10.528;2023-09-12T13:38:53;43.94;33.90;59.89;;
76382;Laerm;65202;52.520;10.528;2023-09-12T13:41:20;43.20;34.11;62.67;;
76382;Laerm;65202;52.520;10.528;2023-09-12T13:43:50;46.67;34.59;64.04;;
76382;Laerm;65202;52.520;10.528;2023-09-12T13:46:17;44.81;33.93;68.65;;
76382;Laerm;65202;52.520;10.528;2023-09-12T13:48:45;46.52;33.98;66.45;;
76382;Laerm;65202;52.520;10.528;2023-09-12T13:51:15;52.64;35.92;78.92;;
76382;Laerm;65202;52.520;10.528;2023-09-12T13:53:42;53.95;42.70;80.98;;
76382;Laerm;65202;52.520;10.528;2023-09-12T13:56:10;48.24;35.07;63.19;;
76382;Laerm;65202;52.520;10.528;2023-09-12T13:58:56;42.92;33.79;56.05;;
76382;Laerm;65202;52.520;10.528;2023-09-12T14:01:23;51.36;34.17;68.47;;
76382;Laerm;65202;52.520;10.528;2023-09-12T14:04:02;41.53;33.68;58.34;;